Time;durP1;ratioP1;P1;durP2;ratioP2;P2;SDS_P1;SDS_P2;PMS_P1;PMS_P2;Temp;Humidity;BMP_temperature;BMP_pressure;BME280_temperature;BME280_humidity;BME280_pressure;Samples;Min_cycle;Max_cycle;Signal;HPM_P1;HPM_P2
2023/04/26 00:02:05;;;;;;;;;;;;;;;25.80;32.26;99735.44;5097339;28;1039;-36
2023/04/26 00:04:32;;;;;;;;;;;;;;;25.67;32.62;99752.38;5097312;28;1248;-33
2023/04/26 00:06:59;;;;;;;;;;;;;;;25.81;32.27;99745.19;5097244;28;1030;-39
2023/04/26 00:09:24;;;;;;;;;;;;;;;25.72;32.40;99741.00;5097070;28;1055;-33
2023/04/26 00:11:50;;;;;;;;;;;;;;;25.63;32.45;99743.00;5105725;28;1141;-39
2023/04/26 00:14:16;;;;;;;;;;;;;;;25.73;32.36;99742.66;5097657;28;1022;-38
2023/04/26 00:16:41;;;;;;;;;;;;;;;25.77;32.25;99741.25;5096867;28;1086;-35
2023/04/26 00:19:09;;;;;;;;;;;;;;;25.84;32.01;99747.47;5097329;28;2065;-34
2023/04/26 00:21:35;;;;;;;;;;;;;;;25.80;32.07;99741.69;5101585;28;1503;-33
2023/04/26 00:24:01;;;;;;;;;;;;;;;25.82;31.95;99746.03;5096825;28;1027;-37
2023/04/26 00:26:26;;;;;;;;;;;;;;;25.79;32.01;99747.28;5096278;28;1170;-38
2023/04/26 00:28:52;;;;;;;;;;;;;;;25.75;32.35;99746.81;5078735;28;1075;-35
2023/04/26 00:31:17;;;;;;;;;;;;;;;25.74;32.03;99745.16;5078578;28;1267;-32
2023/04/26 00:33:43;;;;;;;;;;;;;;;25.74;32.17;99747.03;5097361;28;1138;-35
2023/04/26 00:36:09;;;;;;;;;;;;;;;25.74;32.16;99745.16;5105081;28;1133;-37
2023/04/26 00:38:34;;;;;;;;;;;;;;;25.80;32.03;99741.69;5096536;28;1986;-39
2023/04/26 00:41:00;;;;;;;;;;;;;;;25.71;32.12;99745.53;5096773;28;1110;-36
2023/04/26 00:43:26;;;;;;;;;;;;;;;25.76;32.04;99740.41;5078253;28;1905;-37
2023/04/26 00:45:51;;;;;;;;;;;;;;;25.73;32.03;99745.34;5098013;28;1133;-36
2023/04/26 00:48:17;;;;;;;;;;;;;;;25.79;31.98;99749.97;5080142;28;1331;-34
2023/04/26 00:50:43;;;;;;;;;;;;;;;25.77;32.21;99743.94;5078421;28;1205;-36
2023/04/26 00:53:08;;;;;;;;;;;;;;;25.70;32.13;99748.44;5078195;28;1209;-36
2023/04/26 00:55:34;;;;;;;;;;;;;;;25.70;32.23;99740.34;5096635;28;1128;-33
2023/04/26 00:58:00;;;;;;;;;;;;;;;25.60;32.30;99736.13;5079957;28;1914;-34
2023/04/26 01:00:25;;;;;;;;;;;;;;;25.60;32.42;99732.59;5105443;28;1022;-36
2023/04/26 01:02:50;;;;;;;;;;;;;;;25.57;32.54;99736.53;5096675;28;1114;-36
2023/04/26 01:05:16;;;;;;;;;;;;;;;25.65;32.36;99740.97;5078277;28;1039;-33
2023/04/26 01:07:43;;;;;;;;;;;;;;;25.67;32.05;99733.53;5078250;28;1103;-35
2023/04/26 01:10:08;;;;;;;;;;;;;;;25.67;32.06;99739.72;5096731;28;1162;-36
2023/04/26 01:12:34;;;;;;;;;;;;;;;25.65;32.13;99740.97;5078190;28;1337;-35
2023/04/26 01:15:00;;;;;;;;;;;;;;;25.55;32.57;99739.44;5077659;28;1070;-37
2023/04/26 01:17:25;;;;;;;;;;;;;;;25.67;32.27;99730.81;5096600;28;1910;-33
2023/04/26 01:19:51;;;;;;;;;;;;;;;25.66;32.31;99737.22;5078353;28;1291;-36
2023/04/26 01:22:17;;;;;;;;;;;;;;;25.59;32.24;99733.66;5087852;28;1212;-35
2023/04/26 01:24:42;;;;;;;;;;;;;;;25.63;32.50;99734.94;5106015;28;1013;-36
2023/04/26 01:27:08;;;;;;;;;;;;;;;25.62;32.19;99734.09;5096685;28;1066;-34
2023/04/26 01:29:34;;;;;;;;;;;;;;;25.66;32.36;99727.28;5096121;28;1133;-37
2023/04/26 01:31:59;;;;;;;;;;;;;;;25.70;32.02;99722.34;5095902;28;1055;-34
2023/04/26 01:34:27;;;;;;;;;;;;;;;25.51;32.39;99719.28;5081179;28;1288;-34
2023/04/26 01:36:52;;;;;;;;;;;;;;;25.50;32.29;99719.50;5099053;28;1902;-37
2023/04/26 01:39:19;;;;;;;;;;;;;;;25.55;32.41;99717.88;5100290;28;1209;-33
2023/04/26 01:41:44;;;;;;;;;;;;;;;25.62;32.39;99712.53;5100141;28;967;-39
2023/04/26 01:44:10;;;;;;;;;;;;;;;25.60;32.36;99714.59;5099796;28;1259;-34
2023/04/26 01:46:35;;;;;;;;;;;;;;;25.65;32.07;99717.56;5099883;28;1058;-37
2023/04/26 01:49:01;;;;;;;;;;;;;;;25.59;32.18;99709.41;5100016;28;1109;-38
2023/04/26 01:51:28;;;;;;;;;;;;;;;25.54;32.38;99715.41;5081101;28;1233;-37
2023/04/26 01:53:53;;;;;;;;;;;;;;;25.56;32.04;99714.16;5099629;28;1014;-37
2023/04/26 01:56:19;;;;;;;;;;;;;;;25.53;32.43;99711.00;5099870;28;1152;-35
2023/04/26 01:58:45;;;;;;;;;;;;;;;25.56;32.41;99714.16;5103593;28;1905;-36
2023/04/26 02:01:10;;;;;;;;;;;;;;;25.48;32.62;99711.63;5087879;28;1085;-35
2023/04/26 02:03:36;;;;;;;;;;;;;;;25.53;32.16;99713.72;5091430;28;1057;-35
2023/04/26 02:06:02;;;;;;;;;;;;;;;25.54;32.50;99705.44;5099233;28;1147;-35
2023/04/26 02:08:27;;;;;;;;;;;;;;;25.58;32.48;99702.34;5081592;28;1221;-33
2023/04/26 02:10:53;;;;;;;;;;;;;;;25.57;32.17;99704.22;5100539;28;1106;-37
2023/04/26 02:13:18;;;;;;;;;;;;;;;25.54;32.36;99708.13;5099693;28;1131;-37
2023/04/26 02:15:47;;;;;;;;;;;;;;;25.61;32.44;99710.06;5080850;28;1146;-37
2023/04/26 02:18:14;;;;;;;;;;;;;;;25.58;32.47;99713.13;5099463;28;1926;-34
2023/04/26 02:20:43;;;;;;;;;;;;;;;25.50;32.32;99706.88;5099342;28;1077;-34
2023/04/26 02:23:09;;;;;;;;;;;;;;;25.58;32.39;99710.41;5112586;28;1098;-36
2023/04/26 02:25:34;;;;;;;;;;;;;;;25.48;32.45;99708.94;5082733;28;1041;-36
2023/04/26 02:28:00;;;;;;;;;;;;;;;25.50;32.67;99706.88;5099510;28;1130;-35
2023/04/26 02:30:27;;;;;;;;;;;;;;;25.52;32.41;99709.38;5080851;28;1343;-37
2023/04/26 02:32:53;;;;;;;;;;;;;;;25.51;32.31;99713.06;5081100;28;1753;-37
2023/04/26 02:35:18;;;;;;;;;;;;;;;25.49;32.54;99709.75;5080789;28;1576;-33
2023/04/26 02:37:47;;;;;;;;;;;;;;;25.60;32.41;99711.91;5080577;28;1918;-39
2023/04/26 02:40:13;;;;;;;;;;;;;;;25.46;32.51;99708.28;5080300;28;1344;-35
2023/04/26 02:42:39;;;;;;;;;;;;;;;25.45;32.60;99703.94;5081135;28;1144;-36
2023/04/26 02:45:06;;;;;;;;;;;;;;;25.46;32.51;99708.28;5080378;28;1442;-36
2023/04/26 02:47:32;;;;;;;;;;;;;;;25.44;32.60;99708.47;5080290;28;1150;-36
2023/04/26 02:49:58;;;;;;;;;;;;;;;25.40;32.71;99709.06;5098205;28;1114;-35
2023/04/26 02:52:24;;;;;;;;;;;;;;;25.44;32.42;99708.47;5080412;28;1243;-35
2023/04/26 02:54:50;;;;;;;;;;;;;;;25.44;32.63;99711.19;5080655;28;1269;-36
2023/04/26 02:57:15;;;;;;;;;;;;;;;25.44;32.44;99705.78;5080359;28;1905;-37
2023/04/26 02:59:43;;;;;;;;;;;;;;;25.51;32.43;99700.44;5083231;28;1146;-31
2023/04/26 03:02:08;;;;;;;;;;;;;;;25.49;32.52;99701.69;5080583;28;1228;-35
2023/04/26 03:04:34;;;;;;;;;;;;;;;25.46;32.59;99697.50;5098579;28;1070;-33
2023/04/26 03:07:03;;;;;;;;;;;;;;;25.40;32.58;99699.16;5098299;28;1193;-35
2023/04/26 03:09:28;;;;;;;;;;;;;;;25.51;32.63;99696.91;5098234;28;1010;-35
2023/04/26 03:11:54;;;;;;;;;;;;;;;24.97;32.32;99700.06;5102262;28;1321;-31
2023/04/26 03:14:20;;;;;;;;;;;;;;;24.34;32.76;99696.94;5080131;28;1113;-31
2023/04/26 03:16:47;;;;;;;;;;;;;;;23.92;33.06;99699.31;5087408;28;1214;-35
2023/04/26 03:19:13;;;;;;;;;;;;;;;23.60;32.97;99704.06;5079746;28;1985;-30
2023/04/26 03:21:39;;;;;;;;;;;;;;;23.60;33.16;99696.84;5085838;28;1421;-31
2023/04/26 03:24:05;;;;;;;;;;;;;;;23.74;33.44;99694.34;5094954;28;1894;-30
2023/04/26 03:26:30;;;;;;;;;;;;;;;23.51;33.53;99697.94;5080030;28;1268;-29
2023/04/26 03:28:56;;;;;;;;;;;;;;;23.36;33.84;99698.75;5079445;28;1260;-32
2023/04/26 03:31:22;;;;;;;;;;;;;;;23.57;33.60;99696.38;5097944;28;1173;-30
2023/04/26 03:33:48;;;;;;;;;;;;;;;23.77;33.43;99702.03;5079820;28;1170;-29
2023/04/26 03:36:14;;;;;;;;;;;;;;;23.59;33.81;99711.28;5097917;28;848;-29
2023/04/26 03:38:39;;;;;;;;;;;;;;;23.42;33.54;99702.56;5097485;28;1975;-30
2023/04/26 03:41:05;;;;;;;;;;;;;;;23.52;33.65;99709.53;5079730;28;1383;-32
2023/04/26 03:43:31;;;;;;;;;;;;;;;23.32;34.21;99699.31;5079297;28;1471;-30
2023/04/26 03:45:59;;;;;;;;;;;;;;;22.82;35.18;99700.53;5080417;28;1641;-33
2023/04/26 03:48:26;;;;;;;;;;;;;;;22.45;36.12;99702.97;5100604;28;861;-29
2023/04/26 03:50:52;;;;;;;;;;;;;;;22.31;35.96;99704.56;5079483;28;1278;-32
2023/04/26 03:53:18;;;;;;;;;;;;;;;22.19;35.63;99704.09;5097604;28;1054;-30
2023/04/26 03:55:43;;;;;;;;;;;;;;;22.21;36.45;99701.25;5097236;28;1121;-34
2023/04/26 03:58:09;;;;;;;;;;;;;;;23.56;33.68;99708.13;5079248;28;1918;-35
2023/04/26 04:00:38;;;;;;;;;;;;;;;24.26;32.29;99701.59;5081139;28;1498;-31
2023/04/26 04:03:03;;;;;;;;;;;;;;;24.54;31.80;99704.41;5079087;28;1174;-31
2023/04/26 04:05:30;;;;;;;;;;;;;;;24.98;32.07;99707.09;5078808;28;1454;-31
2023/04/26 04:07:56;;;;;;;;;;;;;;;25.10;31.75;99717.34;5079058;28;1164;-33
2023/04/26 04:10:22;;;;;;;;;;;;;;;25.40;31.57;99714.47;5096800;28;1170;-33
2023/04/26 04:12:48;;;;;;;;;;;;;;;25.31;31.60;99724.53;5079000;28;1103;-30
2023/04/26 04:15:13;;;;;;;;;;;;;;;25.34;31.53;99724.13;5079138;28;1121;-33
2023/04/26 04:17:43;;;;;;;;;;;;;;;25.56;31.43;99718.69;5078928;28;1972;-34
2023/04/26 04:20:10;;;;;;;;;;;;;;;25.80;30.68;99719.28;5079019;28;1098;-33
2023/04/26 04:22:35;;;;;;;;;;;;;;;25.60;30.54;99716.44;5080176;28;1217;-33
2023/04/26 04:25:03;;;;;;;;;;;;;;;25.85;30.69;99719.53;5078764;28;1141;-37
2023/04/26 04:27:29;;;;;;;;;;;;;;;26.18;30.46;99720.69;5078986;28;1162;-32
2023/04/26 04:29:54;;;;;;;;;;;;;;;25.96;30.22;99720.00;5097080;28;1150;-38
2023/04/26 04:32:22;;;;;;;;;;;;;;;26.12;30.67;99729.59;5079018;28;1129;-33
2023/04/26 04:34:47;;;;;;;;;;;;;;;26.17;30.43;99725.25;5078493;28;1391;-36
2023/04/26 04:37:13;;;;;;;;;;;;;;;26.12;30.12;99727.75;5080365;28;1973;-34
2023/04/26 04:39:39;;;;;;;;;;;;;;;26.27;30.49;99730.28;5078497;28;1160;-35
2023/04/26 04:42:04;;;;;;;;;;;;;;;26.28;30.25;99729.25;5078764;28;1229;-33
2023/04/26 04:44:30;;;;;;;;;;;;;;;26.10;30.21;99721.72;5078627;28;1125;-36
2023/04/26 04:46:57;;;;;;;;;;;;;;;26.27;31.13;99727.59;5078357;28;1437;-38
2023/04/26 04:49:23;;;;;;;;;;;;;;;26.27;29.90;99730.28;5087442;28;1120;-37
2023/04/26 04:51:49;;;;;;;;;;;;;;;26.30;30.19;99726.34;5078835;28;1265;-34
2023/04/26 04:54:15;;;;;;;;;;;;;;;26.46;31.06;99725.16;5078835;28;1158;-35
2023/04/26 04:56:41;;;;;;;;;;;;;;;26.33;29.97;99727.81;5078609;28;1340;-35
2023/04/26 04:59:08;;;;;;;;;;;;;;;26.32;30.23;99726.97;5078428;28;1909;-34
2023/04/26 05:01:34;;;;;;;;;;;;;;;26.62;31.30;99728.53;5081878;28;2123;-33
2023/04/26 05:04:06;;;;;;;;;;;;;;;26.43;30.08;99732.81;5084225;28;1194;-34
2023/04/26 05:06:32;;;;;;;;;;;;;;;26.47;30.28;99736.78;5085566;28;1190;-35
2023/04/26 05:08:58;;;;;;;;;;;;;;;26.27;30.67;99726.75;5078407;28;1197;-34
2023/04/26 05:11:23;;;;;;;;;;;;;;;25.99;31.43;99731.19;5078600;28;1201;-31
2023/04/26 05:13:49;;;;;;;;;;;;;;;26.14;31.35;99736.44;5111218;28;1125;-30
2023/04/26 05:16:15;;;;;;;;;;;;;;;26.02;31.18;99732.66;5082501;28;1333;-35
2023/04/26 05:18:41;;;;;;;;;;;;;;;26.16;31.11;99733.53;5082412;28;1968;-35
2023/04/26 05:21:07;;;;;;;;;;;;;;;26.18;31.04;99736.88;5083974;28;1264;-29
2023/04/26 05:23:34;;;;;;;;;;;;;;;24.86;33.91;99736.34;5100241;28;1065;-32
2023/04/26 05:26:04;;;;;;;;;;;;;;;24.31;34.89;99726.06;5104946;28;882;-29
2023/04/26 05:28:52;;;;;;;;;;;;;;;24.68;34.32;99724.19;5099127;28;1190;-28
2023/04/26 05:31:38;;;;;;;;;;;;;;;25.34;33.51;99732.22;5096081;28;1493;-30
2023/04/26 05:34:12;;;;;;;;;;;;;;;25.67;32.75;99741.59;5082154;28;1220;-32
2023/04/26 05:36:38;;;;;;;;;;;;;;;25.76;32.40;99744.94;5088042;28;1166;-30
2023/04/26 05:39:05;;;;;;;;;;;;;;;25.71;32.55;99744.75;5105856;28;1978;-36
2023/04/26 05:41:30;;;;;;;;;;;;;;;25.59;33.06;99747.13;5082098;28;1063;-32
2023/04/26 05:43:56;;;;;;;;;;;;;;;25.68;32.99;99748.63;5082111;28;1234;-34
2023/04/26 05:46:22;;;;;;;;;;;;;;;25.89;32.30;99752.28;5081998;28;1174;-33
2023/04/26 05:48:48;;;;;;;;;;;;;;;25.63;32.49;99748.41;5088206;28;1138;-30
2023/04/26 05:51:13;;;;;;;;;;;;;;;25.54;32.34;99751.22;5095300;28;1309;-36
2023/04/26 05:53:39;;;;;;;;;;;;;;;25.88;32.66;99751.44;5081214;28;1323;-35
2023/04/26 05:56:05;;;;;;;;;;;;;;;25.73;32.45;99754.28;5099440;28;1165;-33
2023/04/26 05:58:32;;;;;;;;;;;;;;;25.58;32.54;99761.59;5081183;28;1997;-32
2023/04/26 06:00:58;;;;;;;;;;;;;;;25.64;32.92;99763.53;5083339;28;1114;-31
2023/04/26 06:03:24;;;;;;;;;;;;;;;25.91;32.23;99769.06;5081540;28;1143;-33
2023/04/26 06:05:50;;;;;;;;;;;;;;;25.66;32.15;99764.16;5081342;28;1524;-29
2023/04/26 06:08:15;;;;;;;;;;;;;;;25.63;32.82;99772.63;5099943;28;1117;-31
2023/04/26 06:10:41;;;;;;;;;;;;;;;25.99;32.03;99766.22;5099029;28;1118;-33
2023/04/26 06:13:06;;;;;;;;;;;;;;;25.73;32.42;99767.75;5089209;28;1289;-31
2023/04/26 06:15:34;;;;;;;;;;;;;;;25.54;32.62;99783.53;5083472;28;1304;-33
2023/04/26 06:18:00;;;;;;;;;;;;;;;25.90;32.06;99776.34;5080560;28;1902;-31
2023/04/26 06:20:26;;;;;;;;;;;;;;;25.83;32.72;99774.63;5100227;28;1267;-37
2023/04/26 06:22:52;;;;;;;;;;;;;;;25.85;32.45;99775.25;5085507;28;1213;-36
2023/04/26 06:25:18;;;;;;;;;;;;;;;26.03;32.24;99778.28;5100807;28;1066;-31
2023/04/26 06:27:43;;;;;;;;;;;;;;;25.89;32.15;99782.75;5099216;28;1041;-31
2023/04/26 06:30:09;;;;;;;;;;;;;;;25.99;32.21;99768.09;5080885;28;1213;-33
2023/04/26 06:32:39;;;;;;;;;;;;;;;26.21;32.10;99779.59;5081074;28;1421;-31
2023/04/26 06:35:05;;;;;;;;;;;;;;;26.21;31.62;99782.28;5080980;28;1306;-32
2023/04/26 06:37:31;;;;;;;;;;;;;;;26.19;31.82;99778.13;5090219;28;1991;-33
2023/04/26 06:39:56;;;;;;;;;;;;;;;26.20;32.25;99777.94;5080576;28;1299;-34
2023/04/26 06:42:25;;;;;;;;;;;;;;;26.29;31.29;99779.41;5080759;28;1367;-34
2023/04/26 06:45:09;;;;;;;;;;;;;;;26.08;31.80;99782.22;5098676;28;1305;-31
2023/04/26 06:47:35;;;;;;;;;;;;;;;26.18;31.96;99785.38;5081156;28;1261;-29
2023/04/26 06:50:01;;;;;;;;;;;;;;;26.32;32.18;99788.13;5085389;28;940;-34
2023/04/26 06:52:28;;;;;;;;;;;;;;;26.36;31.88;99789.44;5098882;28;1030;-32
2023/04/26 06:54:54;;;;;;;;;;;;;;;26.31;31.41;99786.50;5080938;28;1125;-31
2023/04/26 06:57:19;;;;;;;;;;;;;;;26.41;31.62;99790.50;5098770;28;1902;-29
2023/04/26 06:59:45;;;;;;;;;;;;;;;26.33;31.47;99782.56;5098932;28;1127;-32
2023/04/26 07:02:10;;;;;;;;;;;;;;;26.29;31.74;99790.19;5108277;28;1129;-32
2023/04/26 07:04:36;;;;;;;;;;;;;;;26.38;31.84;99788.19;5098482;28;1078;-33
2023/04/26 07:07:01;;;;;;;;;;;;;;;26.36;30.93;99789.44;5098355;28;1010;-33
2023/04/26 07:09:27;;;;;;;;;;;;;;;26.43;31.39;99790.28;5098570;28;1474;-32
2023/04/26 07:11:52;;;;;;;;;;;;;;;26.22;30.92;99786.66;5098473;28;1081;-34
2023/04/26 07:14:18;;;;;;;;;;;;;;;26.11;30.25;99781.84;5111851;28;1102;-31
2023/04/26 07:16:43;;;;;;;;;;;;;;;26.35;30.61;99794.00;5109272;28;1049;-29
2023/04/26 07:19:10;;;;;;;;;;;;;;;26.24;30.91;99791.84;5097941;28;1988;-32
2023/04/26 07:21:35;;;;;;;;;;;;;;;26.39;30.73;99797.13;5103281;28;1138;-34
2023/04/26 07:24:01;;;;;;;;;;;;;;;26.26;30.85;99793.31;5101795;28;1185;-32
2023/04/26 07:26:26;;;;;;;;;;;;;;;26.30;31.00;99801.81;5102554;28;942;-35
2023/04/26 07:28:52;;;;;;;;;;;;;;;26.43;31.02;99792.97;5097792;28;1144;-34
2023/04/26 07:31:18;;;;;;;;;;;;;;;26.43;31.03;99792.97;5097546;28;1051;-36
2023/04/26 07:33:43;;;;;;;;;;;;;;;26.49;30.85;99786.78;5098368;28;1054;-32
2023/04/26 07:36:09;;;;;;;;;;;;;;;26.59;30.57;99788.28;5097477;28;1110;-32
2023/04/26 07:38:35;;;;;;;;;;;;;;;26.60;30.75;99787.22;5105564;28;1968;-32
2023/04/26 07:41:02;;;;;;;;;;;;;;;26.57;30.61;99791.19;5097816;28;1058;-36
2023/04/26 07:43:28;;;;;;;;;;;;;;;26.52;30.51;99791.78;5111253;28;1189;-31
2023/04/26 07:45:54;;;;;;;;;;;;;;;26.66;30.79;99791.81;5097848;28;1280;-32
2023/04/26 07:48:19;;;;;;;;;;;;;;;26.80;30.53;99791.84;5107706;27;974;-32
2023/04/26 07:50:45;;;;;;;;;;;;;;;26.67;30.52;99787.25;5105476;28;1209;-33
2023/04/26 07:53:11;;;;;;;;;;;;;;;26.56;30.88;99794.88;5097527;28;1058;-31
2023/04/26 07:55:36;;;;;;;;;;;;;;;26.61;30.73;99789.72;5097261;28;1149;-32
2023/04/26 07:58:02;;;;;;;;;;;;;;;26.69;30.81;99787.88;5097364;28;1898;-34
2023/04/26 08:00:28;;;;;;;;;;;;;;;26.78;30.25;99797.44;5097548;28;1130;-36
2023/04/26 08:02:53;;;;;;;;;;;;;;;26.64;30.89;99797.41;5102455;28;1070;-31
2023/04/26 08:05:19;;;;;;;;;;;;;;;26.60;31.01;99792.63;5096913;28;1201;-33
2023/04/26 08:07:44;;;;;;;;;;;;;;;26.55;30.87;99795.09;5096953;28;1115;-33
2023/04/26 08:10:10;;;;;;;;;;;;;;;26.71;30.75;99796.63;5097446;28;1126;-34
2023/04/26 08:12:36;;;;;;;;;;;;;;;26.59;30.89;99789.09;5096968;28;1193;-33
2023/04/26 08:15:03;;;;;;;;;;;;;;;26.72;30.46;99792.88;5105129;28;861;-33
2023/04/26 08:17:29;;;;;;;;;;;;;;;26.57;30.60;99785.78;5097152;28;1922;-35
2023/04/26 08:19:54;;;;;;;;;;;;;;;26.68;30.63;99784.34;5097390;28;1046;-34
2023/04/26 08:22:20;;;;;;;;;;;;;;;26.67;30.50;99785.41;5107283;28;1113;-36
2023/04/26 08:24:49;;;;;;;;;;;;;;;26.68;30.68;99781.66;5097080;28;1189;-36
2023/04/26 08:27:15;;;;;;;;;;;;;;;26.65;30.72;99788.28;5098230;28;979;-32
2023/04/26 08:29:41;;;;;;;;;;;;;;;26.60;30.78;99779.97;5096967;28;1078;-34
2023/04/26 08:32:07;;;;;;;;;;;;;;;26.78;30.37;99776.69;5096997;28;1593;-32
2023/04/26 08:34:32;;;;;;;;;;;;;;;26.57;30.68;99783.09;5096576;28;1034;-31
2023/04/26 08:36:58;;;;;;;;;;;;;;;26.75;30.74;99777.13;5108683;28;1022;-33
2023/04/26 08:39:23;;;;;;;;;;;;;;;26.68;30.48;99781.66;5099148;28;1913;-34
2023/04/26 08:41:49;;;;;;;;;;;;;;;26.64;30.85;99780.41;5096578;28;1190;-32
2023/04/26 08:44:15;;;;;;;;;;;;;;;26.90;30.45;99778.78;5096754;28;1214;-34
2023/04/26 08:46:43;;;;;;;;;;;;;;;26.89;30.20;99788.75;5096569;28;1229;-33
2023/04/26 08:49:29;;;;;;;;;;;;;;;27.00;30.43;99781.94;5096657;28;1209;-31
2023/04/26 08:51:54;;;;;;;;;;;;;;;26.58;31.02;99775.81;5085286;28;1359;-32
2023/04/26 08:54:20;;;;;;;;;;;;;;;26.45;31.49;99782.84;5102627;28;1142;-35
2023/04/26 08:56:46;;;;;;;;;;;;;;;26.58;31.56;99781.19;5086045;28;1090;-35
2023/04/26 08:59:12;;;;;;;;;;;;;;;26.47;31.72;99783.47;5109777;28;1922;-31
2023/04/26 09:01:40;;;;;;;;;;;;;;;26.47;31.84;99780.78;5097078;28;1229;-30
2023/04/26 09:04:06;;;;;;;;;;;;;;;26.44;31.46;99777.66;5085718;28;1254;-32
2023/04/26 09:06:32;;;;;;;;;;;;;;;26.33;31.88;99779.03;5098469;28;1320;-34
2023/04/26 09:08:57;;;;;;;;;;;;;;;26.56;31.49;99781.41;5078612;28;1126;-31
2023/04/26 09:11:23;;;;;;;;;;;;;;;26.36;31.53;99781.34;5096853;28;1067;-29
2023/04/26 09:13:48;;;;;;;;;;;;;;;26.34;31.69;99778.84;5078551;28;1075;-32
2023/04/26 09:16:14;;;;;;;;;;;;;;;26.35;31.69;99779.69;5096466;28;1130;-31
2023/04/26 09:18:46;;;;;;;;;;;;;;;26.37;31.35;99783.84;5096255;28;1905;-34
2023/04/26 09:21:15;;;;;;;;;;;;;;;26.73;31.21;99783.72;5097996;28;1258;-30
2023/04/26 09:24:14;;;;;;;;;;;;;;;26.63;31.59;99776.88;5087154;28;1089;-36
2023/04/26 09:26:39;;;;;;;;;;;;;;;26.26;32.57;99782.50;5069836;28;1429;-34
2023/04/26 09:29:15;;;;;;;;;;;;;;;26.28;32.50;99782.31;5099950;28;1113;-33
2023/04/26 09:31:44;;;;;;;;;;;;;;;26.71;31.57;99778.53;5096407;28;1200;-35
2023/04/26 09:34:10;;;;;;;;;;;;;;;26.48;31.91;99787.81;5096059;28;1161;-34
2023/04/26 09:36:57;;;;;;;;;;;;;;;26.44;31.80;99791.13;5096415;28;1062;-33
2023/04/26 09:39:36;;;;;;;;;;;;;;;26.41;31.50;99782.41;5101655;28;1918;-36
2023/04/26 09:42:04;;;;;;;;;;;;;;;26.70;31.11;99784.97;5096481;28;1162;-32
2023/04/26 09:44:30;;;;;;;;;;;;;;;26.58;31.41;99784.75;5096039;28;1023;-34
2023/04/26 09:47:05;;;;;;;;;;;;;;;26.49;31.07;99794.06;5095919;28;1118;-36
2023/04/26 09:49:50;;;;;;;;;;;;;;;26.64;31.44;99783.09;5096006;28;1178;-36
2023/04/26 09:52:16;;;;;;;;;;;;;;;26.82;30.99;99774.44;5108987;28;1000;-32
2023/04/26 09:54:45;;;;;;;;;;;;;;;26.73;31.24;99776.47;5095850;28;1031;-32
2023/04/26 09:57:14;;;;;;;;;;;;;;;26.80;30.94;99775.66;5096026;28;1956;-30
2023/04/26 09:59:40;;;;;;;;;;;;;;;26.76;30.89;99776.06;5099524;28;1054;-34
2023/04/26 10:02:07;;;;;;;;;;;;;;;26.81;30.89;99777.34;5100688;28;1019;-36
2023/04/26 10:04:32;;;;;;;;;;;;;;;26.88;30.85;99781.69;5091539;28;1037;-31
2023/04/26 10:06:58;;;;;;;;;;;;;;;26.90;30.97;99781.50;5099389;28;1134;-31
2023/04/26 10:09:23;;;;;;;;;;;;;;;26.80;31.07;99779.19;5099721;28;1050;-32
2023/04/26 10:11:49;;;;;;;;;;;;;;;26.90;30.98;99776.09;5081703;28;1131;-32
2023/04/26 10:14:14;;;;;;;;;;;;;;;26.90;30.85;99774.25;5100885;28;1117;-31
2023/04/26 10:16:40;;;;;;;;;;;;;;;26.98;30.99;99777.75;5085288;28;1022;-31
2023/04/26 10:19:06;;;;;;;;;;;;;;;26.95;30.61;99770.06;5081067;28;1914;-35
2023/04/26 10:21:34;;;;;;;;;;;;;;;26.95;31.01;99772.78;5100624;28;1165;-34
2023/04/26 10:23:59;;;;;;;;;;;;;;;26.88;30.94;99765.50;5099477;28;1146;-31
2023/04/26 10:26:43;;;;;;;;;;;;;;;26.64;30.50;99762.34;5101353;28;1142;-32
2023/04/26 10:29:09;;;;;;;;;;;;;;;26.98;30.66;99775.06;5106758;28;1143;-36
2023/04/26 10:31:52;;;;;;;;;;;;;;;26.97;30.36;99762.59;5098914;28;1031;-32
2023/04/26 10:34:19;;;;;;;;;;;;;;;26.87;30.58;99773.81;5099136;28;1193;-34
2023/04/26 10:37:02;;;;;;;;;;;;;;;27.07;30.29;99768.47;5098484;28;1292;-34
2023/04/26 10:39:28;;;;;;;;;;;;;;;27.01;30.60;99769.25;5105173;28;1914;-36
2023/04/26 10:42:11;;;;;;;;;;;;;;;26.88;30.89;99773.59;5099087;28;1123;-34
2023/04/26 10:44:40;;;;;;;;;;;;;;;27.08;30.52;99771.97;5081042;28;1331;-35
2023/04/26 10:47:06;;;;;;;;;;;;;;;26.40;29.97;99774.53;5099259;28;1188;-35
2023/04/26 10:49:44;;;;;;;;;;;;;;;26.18;31.13;99769.22;5099290;28;1198;-33
2023/04/26 10:52:13;;;;;;;;;;;;;;;25.87;30.46;99765.13;5098616;28;865;-31
2023/04/26 10:54:49;;;;;;;;;;;;;;;25.90;30.59;99762.03;5098189;28;1249;-36
2023/04/26 10:57:14;;;;;;;;;;;;;;;25.76;30.66;99759.25;5098714;28;1918;-32
2023/04/26 11:00:00;;;;;;;;;;;;;;;25.80;30.38;99762.38;5098382;28;1061;-32
2023/04/26 11:02:45;;;;;;;;;;;;;;;26.42;29.84;99758.97;5098357;28;1525;-30
2023/04/26 11:05:20;;;;;;;;;;;;;;;26.78;29.56;99762.38;5098984;28;991;-34
2023/04/26 11:07:46;;;;;;;;;;;;;;;26.75;30.14;99763.63;5080149;28;1202;-31
2023/04/26 11:10:17;;;;;;;;;;;;;;;26.83;29.72;99765.28;5099022;28;1300;-33
2023/04/26 11:12:44;;;;;;;;;;;;;;;26.94;29.54;99766.56;5086868;28;1127;-34
2023/04/26 11:15:11;;;;;;;;;;;;;;;27.02;29.67;99769.09;5085240;28;1183;-36
2023/04/26 11:17:37;;;;;;;;;;;;;;;27.05;30.12;99770.53;5104673;28;1918;-34
2023/04/26 11:20:23;;;;;;;;;;;;;;;27.02;29.86;99769.09;5098665;28;1055;-32
2023/04/26 11:22:48;;;;;;;;;;;;;;;26.99;29.88;99766.75;5113445;28;1194;-33
2023/04/26 11:25:14;;;;;;;;;;;;;;;27.06;30.09;99763.28;5108911;28;1086;-33
2023/04/26 11:27:42;;;;;;;;;;;;;;;27.05;29.80;99764.28;5103461;28;1042;-32
2023/04/26 11:30:07;;;;;;;;;;;;;;;27.04;30.24;99768.03;5098322;28;1217;-31
2023/04/26 11:32:33;;;;;;;;;;;;;;;26.94;30.03;99763.88;5097890;28;1030;-33
2023/04/26 11:34:59;;;;;;;;;;;;;;;27.02;30.17;99769.09;5098141;28;1131;-33
2023/04/26 11:37:24;;;;;;;;;;;;;;;26.96;29.96;99760.97;5097511;28;2278;-33
2023/04/26 11:39:50;;;;;;;;;;;;;;;27.04;30.28;99758.09;5106820;28;1109;-32
2023/04/26 11:42:15;;;;;;;;;;;;;;;26.99;30.41;99763.25;5101407;28;1102;-33
2023/04/26 11:44:41;;;;;;;;;;;;;;;26.64;30.32;99750.75;5097977;28;1083;-34
2023/04/26 11:47:06;;;;;;;;;;;;;;;26.84;30.27;99755.34;5097696;28;1174;-31
2023/04/26 11:49:32;;;;;;;;;;;;;;;26.92;30.34;99755.13;5097678;28;1050;-34
2023/04/26 11:51:58;;;;;;;;;;;;;;;27.02;30.12;99747.50;5099222;28;975;-35
2023/04/26 11:54:27;;;;;;;;;;;;;;;26.97;30.23;99752.66;5115674;28;1149;-32
2023/04/26 11:56:53;;;;;;;;;;;;;;;26.93;30.40;99762.19;5106310;28;1178;-37
2023/04/26 11:59:28;;;;;;;;;;;;;;;27.00;30.43;99759.50;5097529;28;1921;-33
2023/04/26 12:01:54;;;;;;;;;;;;;;;26.99;30.20;99753.25;5097699;28;1134;-32
2023/04/26 12:04:26;;;;;;;;;;;;;;;26.92;30.43;99751.59;5102663;28;1204;-33
2023/04/26 12:06:51;;;;;;;;;;;;;;;26.88;30.44;99752.00;5097487;28;1026;-30
2023/04/26 12:09:21;;;;;;;;;;;;;;;26.94;30.50;99753.06;5097484;28;1170;-31
2023/04/26 12:11:47;;;;;;;;;;;;;;;26.92;30.55;99746.19;5079312;28;1084;-32
2023/04/26 12:14:14;;;;;;;;;;;;;;;26.96;30.43;99747.47;5097028;28;1421;-32
2023/04/26 12:16:41;;;;;;;;;;;;;;;26.95;30.33;99751.19;5099062;28;895;-31
2023/04/26 12:19:07;;;;;;;;;;;;;;;26.75;30.21;99757.38;5097002;28;1910;-31
2023/04/26 12:21:39;;;;;;;;;;;;;;;26.37;30.44;99756.88;5101421;28;1246;-32
2023/04/26 12:24:05;;;;;;;;;;;;;;;26.69;30.36;99752.81;5097628;28;1140;-33
2023/04/26 12:26:46;;;;;;;;;;;;;;;26.89;30.31;99748.28;5097054;28;1082;-32
2023/04/26 12:29:11;;;;;;;;;;;;;;;26.81;30.23;99747.66;5105971;28;884;-33
2023/04/26 12:31:37;;;;;;;;;;;;;;;26.87;30.10;99750.38;5096132;28;1028;-29
2023/04/26 12:34:02;;;;;;;;;;;;;;;26.88;30.22;99737.69;5096209;28;1070;-35
2023/04/26 12:36:27;;;;;;;;;;;;;;;26.87;30.44;99739.56;5095649;28;1098;-31
2023/04/26 12:38:53;;;;;;;;;;;;;;;27.01;30.49;99736.84;5096307;28;1913;-30
2023/04/26 12:41:19;;;;;;;;;;;;;;;27.05;30.21;99748.09;5109312;28;1285;-32
2023/04/26 12:43:44;;;;;;;;;;;;;;;27.21;29.74;99747.69;5096330;28;1042;-32
2023/04/26 12:46:10;;;;;;;;;;;;;;;26.97;30.11;99741.88;5097186;28;1153;-37
2023/04/26 12:48:36;;;;;;;;;;;;;;;27.06;29.87;99744.38;5096605;28;1141;-32
2023/04/26 12:51:02;;;;;;;;;;;;;;;27.29;29.74;99749.38;5096469;28;1174;-33
2023/04/26 12:53:27;;;;;;;;;;;;;;;26.83;30.11;99741.00;5096207;28;923;-31
2023/04/26 12:55:53;;;;;;;;;;;;;;;26.32;30.62;99742.31;5096321;28;1214;-35
2023/04/26 12:58:18;;;;;;;;;;;;;;;26.87;30.59;99727.94;5096757;28;1988;-32